Time;durP1;ratioP1;P1;durP2;ratioP2;P2;SDS_P1;SDS_P2;PMS_P1;PMS_P2;Temp;Humidity;BMP_temperature;BMP_pressure;BME280_temperature;BME280_humidity;BME280_pressure;Samples;Min_cycle;Max_cycle;Signal;HPM_P1;HPM_P2
2024/02/14 00:02:07;;;;;;;5.40;3.10;;;9.10;99.90;;;;;;5034681;28;20196;-68
2024/02/14 00:04:33;;;;;;;3.20;2.60;;;9.10;99.90;;;;;;5033488;28;20485;-74
2024/02/14 00:06:59;;;;;;;4.93;2.97;;;9.20;99.90;;;;;;5033341;28;20547;-74
2024/02/14 00:09:25;;;;;;;3.40;2.50;;;9.20;99.90;;;;;;5033458;28;20191;-67
2024/02/14 00:11:51;;;;;;;4.90;3.47;;;9.20;99.90;;;;;;5033601;28;20422;-73
2024/02/14 00:14:19;;;;;;;3.57;2.40;;;9.20;99.90;;;;;;5034888;28;20506;-70
2024/02/14 00:16:44;;;;;;;5.63;2.50;;;9.20;99.90;;;;;;5032785;28;20988;-70
2024/02/14 00:19:10;;;;;;;3.33;2.23;;;9.20;99.90;;;;;;5034856;28;20781;-66
2024/02/14 00:21:37;;;;;;;4.50;2.70;;;9.20;99.90;;;;;;5031734;28;20184;-70
2024/02/14 00:24:02;;;;;;;4.40;2.13;;;9.20;99.90;;;;;;5034790;28;20188;-76
2024/02/14 00:26:28;;;;;;;2.20;2.00;;;9.20;99.90;;;;;;5031115;28;21008;-68
2024/02/14 00:28:54;;;;;;;3.87;2.30;;;9.30;99.90;;;;;;5033643;28;20244;-72
2024/02/14 00:31:19;;;;;;;4.10;2.37;;;9.30;99.90;;;;;;5034043;28;20235;-69
2024/02/14 00:33:46;;;;;;;4.77;2.40;;;9.30;99.90;;;;;;5033279;28;20191;-68
2024/02/14 00:36:12;;;;;;;2.30;2.10;;;9.30;99.90;;;;;;5033635;28;20197;-74
2024/02/14 00:38:37;;;;;;;3.40;2.40;;;9.30;99.90;;;;;;5033329;28;20420;-70
2024/02/14 00:41:03;;;;;;;3.60;1.93;;;9.30;99.90;;;;;;5032874;28;20265;-70
2024/02/14 00:43:29;;;;;;;3.70;3.03;;;9.30;99.90;;;;;;5033708;28;20186;-70
2024/02/14 00:45:56;;;;;;;3.97;2.23;;;9.30;99.90;;;;;;5032922;28;20487;-70
2024/02/14 00:48:22;;;;;;;3.30;2.10;;;9.30;99.90;;;;;;5032746;28;20225;-69
2024/02/14 00:50:48;;;;;;;3.70;2.10;;;9.30;99.90;;;;;;5032792;28;20436;-69
2024/02/14 00:53:14;;;;;;;4.10;2.30;;;9.30;99.90;;;;;;5032799;28;20437;-67
2024/02/14 00:55:40;;;;;;;3.30;2.30;;;9.30;99.90;;;;;;5033385;28;20486;-73
2024/02/14 00:58:06;;;;;;;4.10;2.40;;;9.30;99.90;;;;;;5033638;28;20641;-70
2024/02/14 01:00:32;;;;;;;2.03;1.83;;;9.20;99.90;;;;;;5033144;28;20555;-68
2024/02/14 01:02:58;;;;;;;3.47;2.43;;;9.20;99.90;;;;;;5034199;28;20421;-65
2024/02/14 01:05:24;;;;;;;2.83;1.80;;;9.20;99.90;;;;;;5034367;28;20293;-69
2024/02/14 01:07:50;;;;;;;3.20;1.87;;;9.20;99.90;;;;;;5033509;28;20424;-71
2024/02/14 01:10:18;;;;;;;2.60;2.13;;;9.20;99.90;;;;;;5033477;28;20426;-69
2024/02/14 01:12:44;;;;;;;2.30;1.70;;;9.20;99.90;;;;;;5033023;28;20853;-69
2024/02/14 01:15:09;;;;;;;3.07;2.00;;;9.10;99.90;;;;;;5034095;28;20486;-66
2024/02/14 01:17:38;;;;;;;5.90;2.20;;;9.20;99.90;;;;;;5033243;28;20191;-67
2024/02/14 01:20:05;;;;;;;3.33;2.20;;;9.10;99.90;;;;;;5033395;28;20503;-70
2024/02/14 01:22:30;;;;;;;2.10;1.90;;;9.10;99.90;;;;;;5032885;28;20428;-76
2024/02/14 01:24:56;;;;;;;2.83;2.40;;;9.10;99.90;;;;;;5033023;28;20480;-69
2024/02/14 01:27:22;;;;;;;2.90;2.20;;;9.10;99.90;;;;;;5033211;28;20182;-70
2024/02/14 01:29:48;;;;;;;2.93;2.10;;;9.00;99.90;;;;;;5031345;28;20178;-73
2024/02/14 01:32:14;;;;;;;1.97;1.80;;;9.10;99.90;;;;;;5033526;28;21015;-66
2024/02/14 01:34:42;;;;;;;2.40;1.60;;;9.00;99.90;;;;;;5033100;28;20512;-73
2024/02/14 01:37:09;;;;;;;3.53;2.23;;;9.00;99.90;;;;;;5032405;28;20855;-70
2024/02/14 01:39:35;;;;;;;3.90;2.50;;;9.00;99.90;;;;;;5032476;28;20429;-71
2024/02/14 01:42:06;;;;;;;2.87;2.27;;;9.00;99.90;;;;;;5033223;28;20425;-72
2024/02/14 01:44:33;;;;;;;3.33;2.10;;;9.00;99.90;;;;;;5032758;28;20441;-67
2024/02/14 01:46:59;;;;;;;4.13;1.87;;;8.90;99.90;;;;;;5014249;28;20440;-73
2024/02/14 01:49:28;;;;;;;2.80;2.30;;;8.90;99.90;;;;;;5033303;28;20496;-65
2024/02/14 01:51:58;;;;;;;2.27;2.07;;;9.00;99.90;;;;;;5031935;28;20543;-72
2024/02/14 01:54:25;;;;;;;2.83;2.20;;;9.00;99.90;;;;;;5032199;28;20432;-66
2024/02/14 01:56:50;;;;;;;4.57;2.83;;;9.00;99.90;;;;;;5032076;28;20448;-75
2024/02/14 01:59:16;;;;;;;2.77;2.17;;;9.00;99.90;;;;;;5031561;28;20915;-73
2024/02/14 02:01:42;;;;;;;3.47;2.13;;;9.00;99.90;;;;;;5033674;28;20222;-70
2024/02/14 02:04:08;;;;;;;1.97;1.77;;;9.00;99.90;;;;;;5032003;28;20554;-76
2024/02/14 02:06:34;;;;;;;2.70;1.97;;;9.00;99.90;;;;;;5032403;28;20225;-73
2024/02/14 02:09:00;;;;;;;2.93;2.73;;;9.00;99.90;;;;;;5032980;28;20934;-70
2024/02/14 02:11:26;;;;;;;3.43;2.27;;;9.00;99.90;;;;;;5031954;28;20198;-73
2024/02/14 02:13:52;;;;;;;3.63;2.00;;;9.00;99.90;;;;;;5033532;28;20417;-72
2024/02/14 02:16:19;;;;;;;4.60;2.10;;;9.00;99.90;;;;;;5031432;28;20668;-68
2024/02/14 02:18:45;;;;;;;2.80;2.00;;;9.00;99.90;;;;;;5032877;28;20458;-73
2024/02/14 02:21:12;;;;;;;2.40;2.20;;;9.00;99.90;;;;;;5032478;28;20420;-67
2024/02/14 02:23:40;;;;;;;2.63;2.03;;;9.00;99.90;;;;;;5031990;28;20440;-67
2024/02/14 02:26:06;;;;;;;4.63;2.23;;;9.00;99.90;;;;;;5029957;28;20571;-69
2024/02/14 02:28:32;;;;;;;3.03;2.10;;;9.00;99.90;;;;;;5031276;28;20528;-71
2024/02/14 02:30:57;;;;;;;3.70;2.30;;;8.90;99.90;;;;;;5030655;28;20235;-65
2024/02/14 02:33:23;;;;;;;2.27;2.07;;;9.00;99.90;;;;;;5032417;28;20244;-68
2024/02/14 02:35:50;;;;;;;2.67;1.83;;;9.00;99.90;;;;;;5031716;28;20711;-68
2024/02/14 02:38:19;;;;;;;2.63;1.97;;;9.00;99.90;;;;;;5031771;28;20190;-67
2024/02/14 02:40:45;;;;;;;7.23;1.90;;;9.00;99.90;;;;;;5031289;28;20425;-72
2024/02/14 02:43:11;;;;;;;2.73;1.77;;;9.00;99.90;;;;;;5032078;28;21165;-70
2024/02/14 02:45:37;;;;;;;4.33;1.43;;;9.00;99.90;;;;;;5031485;28;20218;-72
2024/02/14 02:48:03;;;;;;;3.37;1.90;;;9.00;99.90;;;;;;5030220;28;20190;-72
2024/02/14 02:50:30;;;;;;;3.10;2.57;;;9.00;99.90;;;;;;5031218;28;20494;-64
2024/02/14 02:52:56;;;;;;;4.53;2.27;;;9.00;99.90;;;;;;5031458;28;20277;-70
2024/02/14 02:55:23;;;;;;;2.03;1.73;;;9.00;99.90;;;;;;5032316;28;20466;-66
2024/02/14 02:57:49;;;;;;;3.33;2.13;;;9.10;99.90;;;;;;5030382;28;20527;-66
2024/02/14 03:00:15;;;;;;;3.10;2.00;;;9.10;99.90;;;;;;5031895;28;20599;-71
2024/02/14 03:02:44;;;;;;;2.30;2.10;;;9.10;99.90;;;;;;5030881;28;20444;-68
2024/02/14 03:05:17;;;;;;;2.70;2.10;;;9.20;99.90;;;;;;5030539;28;20970;-69
2024/02/14 03:07:45;;;;;;;2.53;2.00;;;9.10;99.90;;;;;;5031476;28;20976;-75
2024/02/14 03:10:13;;;;;;;2.40;2.20;;;9.20;99.90;;;;;;5031000;28;20593;-71
2024/02/14 03:12:39;;;;;;;1.97;1.77;;;9.10;99.90;;;;;;5031491;28;20420;-69
2024/02/14 03:15:05;;;;;;;2.27;2.00;;;9.20;99.90;;;;;;5031412;28;20511;-71
2024/02/14 03:17:31;;;;;;;2.20;2.00;;;9.10;99.90;;;;;;5031406;28;20209;-64
2024/02/14 03:19:57;;;;;;;3.10;1.90;;;9.10;99.90;;;;;;5031134;28;20935;-67
2024/02/14 03:22:23;;;;;;;3.60;2.10;;;9.20;99.90;;;;;;5031826;28;20432;-71
2024/02/14 03:24:49;;;;;;;2.43;2.23;;;9.20;99.90;;;;;;5031247;28;20221;-70
2024/02/14 03:27:16;;;;;;;2.70;2.17;;;9.20;99.90;;;;;;5030985;28;20810;-70
2024/02/14 03:29:43;;;;;;;2.67;2.47;;;9.30;99.90;;;;;;5030041;28;20618;-69
2024/02/14 03:32:09;;;;;;;4.90;2.47;;;9.30;99.90;;;;;;5030614;28;21099;-67
2024/02/14 03:34:35;;;;;;;3.00;2.60;;;9.30;99.90;;;;;;5033435;28;20519;-67
2024/02/14 03:37:02;;;;;;;3.00;2.20;;;9.30;99.90;;;;;;5031441;28;20855;-70
2024/02/14 03:39:29;;;;;;;2.00;1.90;;;9.30;99.90;;;;;;5033008;28;20441;-73
2024/02/14 03:41:55;;;;;;;2.23;2.00;;;9.30;99.90;;;;;;5031450;28;20429;-72
2024/02/14 03:44:22;;;;;;;2.77;1.90;;;9.40;99.90;;;;;;5032247;28;20428;-66
2024/02/14 03:46:49;;;;;;;1.83;1.73;;;9.40;99.90;;;;;;5031659;28;20451;-70
2024/02/14 03:49:14;;;;;;;2.40;2.10;;;9.40;99.90;;;;;;5031551;28;20443;-67
2024/02/14 03:51:40;;;;;;;2.67;2.47;;;9.50;99.90;;;;;;5030827;28;20444;-70
2024/02/14 03:54:06;;;;;;;5.27;2.87;;;9.40;99.90;;;;;;5031991;28;20229;-70
2024/02/14 03:56:35;;;;;;;4.10;2.80;;;9.40;99.90;;;;;;5032049;28;20550;-67
2024/02/14 03:59:02;;;;;;;3.17;2.13;;;9.40;99.90;;;;;;5029469;28;20432;-68
2024/02/14 04:01:29;;;;;;;2.70;2.50;;;9.40;99.90;;;;;;5028092;28;20433;-70
2024/02/14 04:03:54;;;;;;;2.60;2.40;;;9.30;99.90;;;;;;5032506;28;21182;-67
2024/02/14 04:06:20;;;;;;;3.90;3.30;;;9.30;99.90;;;;;;5032809;28;20471;-74
2024/02/14 04:08:46;;;;;;;3.77;3.20;;;9.30;99.90;;;;;;5034361;28;20190;-66
2024/02/14 04:11:13;;;;;;;3.20;2.90;;;9.30;99.90;;;;;;5034744;28;20592;-68
2024/02/14 04:13:39;;;;;;;3.03;2.60;;;9.30;99.90;;;;;;5035382;28;20194;-64
2024/02/14 04:16:05;;;;;;;3.50;3.10;;;9.30;99.90;;;;;;5035008;28;20433;-72
2024/02/14 04:18:30;;;;;;;3.20;2.90;;;9.30;99.90;;;;;;5035723;28;20467;-67
2024/02/14 04:20:56;;;;;;;4.07;2.90;;;9.30;99.90;;;;;;5035127;28;20531;-72
2024/02/14 04:23:22;;;;;;;3.20;2.90;;;9.30;99.90;;;;;;5034631;28;20181;-69
2024/02/14 04:25:48;;;;;;;5.07;2.90;;;9.40;99.90;;;;;;5034796;28;20798;-72
2024/02/14 04:28:14;;;;;;;3.80;3.10;;;9.40;99.90;;;;;;5031102;28;20425;-70
2024/02/14 04:30:41;;;;;;;3.67;3.37;;;9.40;99.90;;;;;;5034487;28;20182;-71
2024/02/14 04:33:08;;;;;;;5.03;3.70;;;9.40;99.90;;;;;;5034923;28;20280;-70
2024/02/14 04:35:33;;;;;;;4.93;3.60;;;9.40;99.90;;;;;;5035400;28;20858;-69
2024/02/14 04:37:59;;;;;;;3.30;3.10;;;9.40;99.90;;;;;;5032342;28;20440;-73
2024/02/14 04:40:25;;;;;;;3.30;3.00;;;9.40;99.90;;;;;;5034235;28;20197;-72
2024/02/14 04:42:50;;;;;;;4.20;3.53;;;9.40;99.90;;;;;;5034993;28;20213;-67
2024/02/14 04:45:16;;;;;;;3.93;3.60;;;9.40;99.90;;;;;;5034031;28;20271;-68
2024/02/14 04:47:42;;;;;;;3.53;3.07;;;9.40;99.90;;;;;;5034057;28;20743;-70
2024/02/14 04:50:08;;;;;;;3.83;3.50;;;9.50;99.90;;;;;;5034427;28;20191;-66
2024/02/14 04:52:34;;;;;;;3.80;3.50;;;9.50;99.90;;;;;;5032672;28;20190;-67
2024/02/14 04:54:59;;;;;;;4.20;3.83;;;9.50;99.90;;;;;;5033608;28;20423;-67
2024/02/14 04:57:25;;;;;;;3.77;3.47;;;9.50;99.90;;;;;;5033150;28;20271;-73
2024/02/14 04:59:51;;;;;;;6.13;3.97;;;9.50;99.90;;;;;;5034608;28;20539;-72
2024/02/14 05:02:17;;;;;;;3.57;3.20;;;9.50;99.90;;;;;;5032709;28;20248;-66
2024/02/14 05:04:43;;;;;;;4.23;3.80;;;9.50;99.90;;;;;;5034741;28;21088;-69
2024/02/14 05:07:09;;;;;;;4.70;4.30;;;9.50;99.90;;;;;;5033415;28;20197;-72
2024/02/14 05:09:34;;;;;;;3.60;3.30;;;9.50;99.90;;;;;;5033418;28;20769;-68
2024/02/14 05:12:00;;;;;;;5.10;4.00;;;9.50;99.90;;;;;;5033442;28;20177;-70
2024/02/14 05:14:26;;;;;;;3.50;3.20;;;9.50;99.90;;;;;;5033967;28;20191;-69
2024/02/14 05:16:51;;;;;;;3.10;2.90;;;9.50;99.90;;;;;;5033438;28;20178;-73
2024/02/14 05:19:17;;;;;;;3.70;3.40;;;9.50;99.90;;;;;;5033335;28;20190;-72
2024/02/14 05:21:43;;;;;;;3.90;3.30;;;9.50;99.90;;;;;;5032913;28;20242;-67
2024/02/14 05:24:08;;;;;;;5.10;3.57;;;9.50;99.90;;;;;;5033237;28;20187;-69
2024/02/14 05:26:35;;;;;;;3.57;3.17;;;9.60;99.90;;;;;;5032531;28;20217;-69
2024/02/14 05:29:00;;;;;;;3.97;3.57;;;9.50;99.90;;;;;;5031434;28;20185;-72
2024/02/14 05:31:43;;;;;;;3.60;3.30;;;9.60;99.90;;;;;;5032230;28;20444;-74
2024/02/14 05:34:10;;;;;;;6.43;3.77;;;9.50;99.90;;;;;;5033208;28;20684;-71
2024/02/14 05:36:36;;;;;;;3.97;3.40;;;9.60;99.90;;;;;;5030851;28;20429;-68
2024/02/14 05:39:02;;;;;;;4.53;3.77;;;9.60;99.90;;;;;;5032941;28;20494;-68
2024/02/14 05:41:28;;;;;;;3.70;3.40;;;9.60;99.90;;;;;;5030237;28;20441;-69
2024/02/14 05:43:53;;;;;;;9.10;3.30;;;9.60;99.90;;;;;;5033132;28;20432;-72
2024/02/14 05:46:20;;;;;;;3.70;3.40;;;9.70;99.90;;;;;;5029929;28;20226;-70
2024/02/14 05:48:48;;;;;;;4.40;4.00;;;9.60;99.90;;;;;;5028495;28;20296;-70
2024/02/14 05:51:13;;;;;;;4.33;3.60;;;9.70;99.90;;;;;;5026640;28;20524;-67
2024/02/14 05:53:39;;;;;;;3.93;3.57;;;9.60;99.90;;;;;;5029823;28;20946;-70
2024/02/14 05:56:05;;;;;;;3.83;3.50;;;9.70;99.90;;;;;;5026468;28;20186;-70
2024/02/14 05:58:31;;;;;;;4.47;3.70;;;9.70;99.90;;;;;;5029547;28;20552;-70
2024/02/14 06:00:57;;;;;;;3.90;3.60;;;9.60;99.90;;;;;;5029958;28;20194;-70
2024/02/14 06:03:23;;;;;;;4.00;3.70;;;9.60;99.90;;;;;;5032117;28;20427;-66
2024/02/14 06:05:48;;;;;;;4.40;4.07;;;9.60;99.90;;;;;;5031179;28;20750;-67
2024/02/14 06:08:14;;;;;;;6.60;4.13;;;9.60;99.90;;;;;;5031777;28;20224;-71
2024/02/14 06:10:40;;;;;;;3.70;3.40;;;9.60;99.90;;;;;;5030823;28;20202;-67
2024/02/14 06:13:05;;;;;;;4.30;3.90;;;9.70;99.90;;;;;;5062054;28;20182;-67
2024/02/14 06:15:31;;;;;;;4.30;3.90;;;9.70;99.90;;;;;;5031156;28;20200;-69
2024/02/14 06:17:57;;;;;;;4.37;3.97;;;9.70;99.90;;;;;;5030511;28;20178;-74
2024/02/14 06:20:23;;;;;;;4.87;4.47;;;9.70;99.90;;;;;;5028233;28;21397;-67
2024/02/14 06:22:49;;;;;;;4.50;4.10;;;9.70;99.90;;;;;;5029422;28;20201;-70
2024/02/14 06:25:16;;;;;;;3.93;3.50;;;9.70;99.90;;;;;;5030704;28;20463;-70
2024/02/14 06:27:42;;;;;;;5.00;4.50;;;9.70;99.90;;;;;;5029135;28;20209;-68
2024/02/14 06:30:08;;;;;;;4.60;4.07;;;9.70;99.90;;;;;;5031335;28;20440;-66
2024/02/14 06:32:34;;;;;;;4.90;4.50;;;9.80;99.90;;;;;;5030343;28;20467;-64
2024/02/14 06:34:59;;;;;;;4.80;4.40;;;9.70;99.90;;;;;;5031136;28;20456;-69
2024/02/14 06:37:25;;;;;;;4.33;3.93;;;9.70;99.90;;;;;;5030969;28;20183;-68
2024/02/14 06:39:51;;;;;;;5.80;5.30;;;9.70;99.90;;;;;;5030478;28;20189;-67
2024/02/14 06:42:17;;;;;;;4.93;4.53;;;9.70;99.90;;;;;;5030538;28;20186;-68
2024/02/14 06:44:43;;;;;;;5.60;5.10;;;9.80;99.90;;;;;;5030203;28;20682;-65
2024/02/14 06:47:08;;;;;;;5.57;5.07;;;9.80;99.90;;;;;;5027665;28;20457;-69
2024/02/14 06:49:34;;;;;;;6.90;5.53;;;9.80;99.90;;;;;;5028432;28;20204;-69
2024/02/14 06:52:00;;;;;;;5.70;5.20;;;9.80;99.90;;;;;;5025988;28;20178;-66
2024/02/14 06:54:26;;;;;;;7.00;6.40;;;9.80;99.90;;;;;;5028041;28;20255;-68
2024/02/14 06:56:52;;;;;;;5.80;5.30;;;9.80;99.90;;;;;;5028509;28;20429;-68
2024/02/14 06:59:17;;;;;;;6.97;6.40;;;9.80;99.90;;;;;;5023909;28;20694;-69
2024/02/14 07:01:43;;;;;;;7.90;6.10;;;9.80;99.90;;;;;;5028070;28;20220;-68
2024/02/14 07:04:09;;;;;;;6.40;5.83;;;9.90;99.90;;;;;;5029669;28;20251;-70
2024/02/14 07:06:34;;;;;;;6.30;5.70;;;9.90;99.90;;;;;;5030031;28;20209;-67
2024/02/14 07:09:00;;;;;;;7.30;6.60;;;9.90;99.90;;;;;;5030678;28;20667;-67
2024/02/14 07:11:26;;;;;;;7.40;6.00;;;9.90;99.90;;;;;;5028463;28;20178;-69
2024/02/14 07:13:51;;;;;;;6.57;5.90;;;9.90;99.90;;;;;;5029598;28;20243;-67
2024/02/14 07:16:17;;;;;;;7.60;6.90;;;9.80;99.90;;;;;;5029174;28;20194;-67
2024/02/14 07:18:43;;;;;;;8.60;7.20;;;9.90;99.90;;;;;;5028557;28;20191;-66
2024/02/14 07:21:08;;;;;;;7.70;6.93;;;9.90;99.90;;;;;;5028330;28;20252;-70
2024/02/14 07:23:34;;;;;;;9.13;6.77;;;9.90;99.90;;;;;;5026901;28;20222;-71
2024/02/14 07:26:01;;;;;;;8.70;7.80;;;9.90;99.90;;;;;;5028379;28;20217;-69
2024/02/14 07:28:27;;;;;;;8.07;7.37;;;9.90;99.90;;;;;;5028277;28;20190;-69
2024/02/14 07:30:52;;;;;;;7.43;6.83;;;9.90;99.90;;;;;;5029769;28;21347;-66
2024/02/14 07:33:18;;;;;;;7.80;7.10;;;9.90;99.90;;;;;;5029840;28;20280;-68
2024/02/14 07:35:44;;;;;;;7.63;6.97;;;9.90;99.90;;;;;;5031475;28;20182;-71
2024/02/14 07:38:09;;;;;;;7.40;6.70;;;9.90;99.90;;;;;;5032980;28;20187;-67
2024/02/14 07:40:35;;;;;;;8.67;7.00;;;9.90;99.90;;;;;;5033740;28;20253;-72
2024/02/14 07:43:02;;;;;;;7.13;6.53;;;9.90;99.90;;;;;;5033718;28;20190;-64
2024/02/14 07:45:27;;;;;;;7.80;7.07;;;9.90;99.90;;;;;;5033215;28;20530;-69
2024/02/14 07:47:53;;;;;;;7.47;6.73;;;9.90;99.90;;;;;;5032502;28;20439;-70
2024/02/14 07:50:19;;;;;;;7.33;6.63;;;10.00;99.90;;;;;;5033523;28;20198;-70
2024/02/14 07:52:45;;;;;;;7.77;7.07;;;9.90;99.90;;;;;;5033625;28;20219;-64
2024/02/14 07:55:14;;;;;;;7.17;6.57;;;10.00;99.90;;;;;;5033866;28;20980;-71
2024/02/14 07:57:41;;;;;;;7.60;7.00;;;10.00;99.90;;;;;;5033247;28;20433;-72
2024/02/14 08:00:08;;;;;;;9.00;7.80;;;10.00;99.90;;;;;;5032329;28;20439;-69
2024/02/14 08:02:34;;;;;;;7.30;6.60;;;10.10;99.90;;;;;;5032132;28;20491;-66
2024/02/14 08:05:00;;;;;;;7.40;6.70;;;10.10;99.90;;;;;;5032669;28;20475;-69
2024/02/14 08:07:26;;;;;;;7.93;7.23;;;10.10;99.90;;;;;;5033326;28;21078;-70
2024/02/14 08:09:51;;;;;;;8.03;7.33;;;10.10;99.90;;;;;;5032033;28;20477;-67
2024/02/14 08:12:17;;;;;;;8.20;7.43;;;10.10;99.90;;;;;;5033021;28;20191;-71
2024/02/14 08:14:43;;;;;;;7.50;6.80;;;10.10;99.90;;;;;;5032008;28;20221;-68
2024/02/14 08:17:09;;;;;;;7.43;6.73;;;10.10;99.90;;;;;;5031175;28;20307;-68
2024/02/14 08:19:34;;;;;;;7.47;6.77;;;10.10;99.90;;;;;;5014949;28;20194;-68
2024/02/14 08:22:01;;;;;;;7.33;6.63;;;10.10;99.90;;;;;;5031910;28;20186;-67
2024/02/14 08:24:27;;;;;;;7.20;6.50;;;10.10;99.90;;;;;;5030706;28;20285;-66
2024/02/14 08:26:54;;;;;;;6.77;6.17;;;10.10;99.90;;;;;;5031770;28;20471;-71
2024/02/14 08:29:20;;;;;;;7.37;6.67;;;10.20;99.90;;;;;;5029295;28;20453;-66
2024/02/14 08:31:47;;;;;;;7.63;6.93;;;10.10;99.90;;;;;;5030371;28;20536;-70
2024/02/14 08:34:14;;;;;;;7.17;6.47;;;10.10;99.90;;;;;;5030445;28;20789;-69
2024/02/14 08:36:41;;;;;;;7.77;7.10;;;10.10;99.90;;;;;;5029848;28;20518;-69
2024/02/14 08:39:07;;;;;;;6.60;6.00;;;10.10;99.90;;;;;;5029494;28;20552;-72
2024/02/14 08:41:33;;;;;;;6.20;5.70;;;10.10;99.90;;;;;;5028561;28;20554;-67
2024/02/14 08:43:59;;;;;;;7.20;6.50;;;10.10;99.90;;;;;;5029139;28;21052;-71
2024/02/14 08:46:25;;;;;;;6.90;6.20;;;10.10;99.90;;;;;;5028155;28;20244;-66
2024/02/14 08:48:51;;;;;;;6.97;5.97;;;10.10;99.90;;;;;;5030950;28;20194;-68
2024/02/14 08:51:20;;;;;;;6.93;6.33;;;10.10;99.90;;;;;;5029839;28;20432;-69
2024/02/14 08:53:46;;;;;;;6.33;5.73;;;10.20;99.90;;;;;;5033207;28;20505;-68
2024/02/14 08:56:12;;;;;;;6.80;6.20;;;10.20;99.90;;;;;;5029655;28;20418;-74
2024/02/14 08:58:38;;;;;;;6.90;6.30;;;10.20;99.90;;;;;;5032745;28;20444;-67
2024/02/14 09:01:03;;;;;;;7.33;5.37;;;10.20;99.90;;;;;;5031503;28;20519;-69
2024/02/14 09:03:31;;;;;;;6.33;5.73;;;10.20;99.90;;;;;;5031962;28;20430;-67
2024/02/14 09:05:57;;;;;;;5.60;5.10;;;10.20;99.90;;;;;;5032537;28;20282;-67
2024/02/14 09:08:23;;;;;;;5.23;4.73;;;10.30;99.90;;;;;;5030965;28;20433;-65
2024/02/14 09:10:50;;;;;;;4.40;4.00;;;10.30;99.90;;;;;;5032585;28;20905;-68
2024/02/14 09:13:15;;;;;;;5.27;4.80;;;10.30;99.90;;;;;;5031561;28;21163;-71
2024/02/14 09:15:42;;;;;;;7.30;4.60;;;10.30;99.90;;;;;;5031889;28;20433;-70
2024/02/14 09:18:08;;;;;;;4.60;4.20;;;10.30;99.90;;;;;;5031100;28;20602;-71
2024/02/14 09:20:34;;;;;;;5.13;4.60;;;10.30;99.90;;;;;;5031822;28;20430;-71
2024/02/14 09:23:00;;;;;;;6.07;4.67;;;10.40;99.90;;;;;;5031820;28;20190;-67
2024/02/14 09:25:26;;;;;;;4.90;4.40;;;10.40;99.90;;;;;;5030807;28;20460;-68
2024/02/14 09:27:52;;;;;;;4.80;4.10;;;10.40;99.90;;;;;;5030349;28;20440;-70
2024/02/14 09:30:18;;;;;;;6.97;4.67;;;10.40;99.90;;;;;;5030520;28;20253;-71
2024/02/14 09:32:45;;;;;;;4.60;4.20;;;10.40;99.90;;;;;;5031585;28;20424;-71
2024/02/14 09:35:11;;;;;;;4.87;4.47;;;10.40;99.90;;;;;;5030957;28;21113;-73
2024/02/14 09:37:39;;;;;;;4.50;4.10;;;10.30;99.90;;;;;;5030691;28;20425;-70
2024/02/14 09:40:07;;;;;;;5.33;4.83;;;10.40;99.90;;;;;;5031184;28;20702;-67
2024/02/14 09:42:53;;;;;;;5.20;4.70;;;10.40;99.90;;;;;;5029466;28;20472;-72
2024/02/14 09:45:19;;;;;;;5.03;4.53;;;10.50;99.90;;;;;;5029233;28;20471;-69
2024/02/14 09:47:46;;;;;;;6.20;5.00;;;10.50;99.90;;;;;;5031171;28;20439;-71
2024/02/14 09:50:12;;;;;;;6.37;5.20;;;10.50;99.90;;;;;;5030152;28;20515;-65
2024/02/14 09:52:38;;;;;;;5.07;4.67;;;10.50;99.90;;;;;;5030868;28;20432;-72
2024/02/14 09:55:06;;;;;;;5.60;4.50;;;10.50;99.90;;;;;;5030636;28;20485;-70
2024/02/14 09:57:32;;;;;;;4.20;3.90;;;10.50;99.90;;;;;;5029587;28;20436;-71
2024/02/14 10:00:01;;;;;;;7.00;3.83;;;10.50;99.90;;;;;;5030578;28;20800;-71
2024/02/14 10:02:26;;;;;;;4.27;3.97;;;10.50;99.90;;;;;;5029913;28;20442;-69
2024/02/14 10:04:52;;;;;;;4.00;3.60;;;10.50;99.90;;;;;;5031097;28;20437;-65
2024/02/14 10:07:18;;;;;;;5.60;4.00;;;10.50;99.90;;;;;;5028943;28;20194;-69
2024/02/14 10:09:44;;;;;;;3.90;3.60;;;10.50;99.90;;;;;;5030581;28;20181;-71
2024/02/14 10:12:10;;;;;;;4.67;4.10;;;10.50;99.90;;;;;;5030189;28;20441;-70
2024/02/14 10:14:38;;;;;;;4.73;4.20;;;10.50;99.90;;;;;;5029915;28;20219;-68
2024/02/14 10:17:04;;;;;;;4.23;3.93;;;10.50;99.90;;;;;;5029184;28;20304;-69
2024/02/14 10:19:30;;;;;;;7.10;3.93;;;10.50;99.90;;;;;;5029812;28;20508;-69
2024/02/14 10:22:01;;;;;;;4.40;4.00;;;10.50;99.90;;;;;;5030582;28;20217;-68
2024/02/14 10:24:29;;;;;;;6.07;4.67;;;10.50;99.90;;;;;;5014404;28;20476;-70
2024/02/14 10:26:57;;;;;;;4.27;3.37;;;10.50;99.90;;;;;;5029498;28;20472;-66
2024/02/14 10:29:24;;;;;;;3.80;3.30;;;10.50;99.90;;;;;;5028137;28;20438;-72
2024/02/14 10:31:50;;;;;;;3.63;3.07;;;10.50;99.90;;;;;;5029938;28;20437;-69
2024/02/14 10:34:16;;;;;;;6.50;3.60;;;10.60;99.90;;;;;;5029493;28;20526;-68
2024/02/14 10:36:45;;;;;;;3.67;3.30;;;10.60;99.90;;;;;;5029316;28;20429;-70
2024/02/14 10:39:11;;;;;;;3.77;3.43;;;10.70;99.90;;;;;;5029869;28;20782;-73
2024/02/14 10:41:37;;;;;;;4.33;3.20;;;10.70;99.90;;;;;;5028852;28;20422;-69
2024/02/14 10:44:06;;;;;;;4.00;3.20;;;10.60;99.90;;;;;;5028741;28;20457;-70
2024/02/14 10:46:36;;;;;;;3.80;2.90;;;10.70;99.90;;;;;;5028630;28;20480;-69
2024/02/14 10:49:05;;;;;;;3.00;2.70;;;10.70;99.90;;;;;;5031708;28;20441;-67
2024/02/14 10:51:33;;;;;;;4.20;2.80;;;10.70;99.90;;;;;;5029970;28;20440;-69
2024/02/14 10:54:03;;;;;;;3.93;3.00;;;10.70;99.90;;;;;;5031047;28;20429;-71
2024/02/14 10:56:32;;;;;;;4.13;2.77;;;10.70;99.90;;;;;;5028789;28;20433;-69
2024/02/14 10:59:01;;;;;;;2.97;2.50;;;10.70;99.90;;;;;;5031429;28;20429;-70
2024/02/14 11:01:30;;;;;;;4.30;2.60;;;10.70;99.90;;;;;;5029200;28;20482;-65
2024/02/14 11:04:00;;;;;;;3.00;2.63;;;10.70;99.90;;;;;;5031076;28;20428;-67
2024/02/14 11:06:26;;;;;;;3.20;2.67;;;10.70;99.90;;;;;;5028422;28;20514;-70
2024/02/14 11:09:07;;;;;;;2.83;2.53;;;10.80;99.90;;;;;;5030997;28;20425;-68
2024/02/14 11:11:33;;;;;;;3.10;2.80;;;10.80;99.90;;;;;;5036451;28;20438;-67
2024/02/14 11:13:59;;;;;;;3.70;2.73;;;10.80;99.90;;;;;;5037074;28;20428;-70
2024/02/14 11:16:32;;;;;;;2.60;2.40;;;10.80;99.90;;;;;;5035208;28;20243;-71
2024/02/14 11:19:10;;;;;;;2.47;2.27;;;10.90;99.90;;;;;;5037689;28;20436;-70
2024/02/14 11:21:45;;;;;;;2.63;2.43;;;10.90;99.90;;;;;;5035836;28;20424;-67
2024/02/14 11:24:15;;;;;;;4.23;2.90;;;10.90;99.90;;;;;;5037159;28;20440;-67
2024/02/14 11:26:53;;;;;;;3.93;2.50;;;10.90;99.90;;;;;;5035545;28;20538;-70
2024/02/14 11:29:20;;;;;;;3.67;2.80;;;10.90;99.90;;;;;;5035363;28;20436;-68
2024/02/14 11:31:47;;;;;;;4.93;2.60;;;10.80;99.90;;;;;;5036768;28;20467;-69
2024/02/14 11:34:14;;;;;;;4.00;3.10;;;10.90;99.90;;;;;;5037317;28;20436;-68
2024/02/14 11:36:44;;;;;;;3.70;3.20;;;10.90;99.90;;;;;;5035175;28;20437;-70
2024/02/14 11:39:11;;;;;;;4.70;2.97;;;10.90;99.90;;;;;;5037129;28;20475;-73
2024/02/14 11:41:38;;;;;;;4.03;2.40;;;11.00;99.90;;;;;;5035973;28;20849;-67
2024/02/14 11:44:04;;;;;;;5.03;3.30;;;11.00;99.90;;;;;;5037096;28;20463;-70
2024/02/14 11:46:32;;;;;;;3.80;2.90;;;11.00;99.90;;;;;;5035576;28;20547;-66
2024/02/14 11:49:00;;;;;;;3.90;2.77;;;11.00;99.90;;;;;;5037129;28;20424;-66
2024/02/14 11:51:30;;;;;;;3.30;2.90;;;10.90;99.90;;;;;;5035713;28;20439;-71
2024/02/14 11:54:04;;;;;;;3.10;2.80;;;11.00;99.90;;;;;;5036714;28;20434;-66
2024/02/14 11:56:35;;;;;;;3.00;2.63;;;11.00;99.90;;;;;;5035801;28;20487;-71
2024/02/14 11:59:09;;;;;;;3.20;2.90;;;11.10;99.90;;;;;;5036974;28;20436;-72
2024/02/14 12:01:36;;;;;;;3.80;3.50;;;11.10;99.90;;;;;;5034698;28;20424;-69
2024/02/14 12:04:04;;;;;;;5.20;4.30;;;11.10;99.90;;;;;;5037309;28;20425;-67
2024/02/14 12:06:34;;;;;;;4.13;3.83;;;11.10;99.90;;;;;;5049962;28;20468;-67
2024/02/14 12:09:09;;;;;;;4.83;4.20;;;11.10;99.90;;;;;;5036890;28;20416;-74
2024/02/14 12:11:39;;;;;;;5.40;4.90;;;11.10;99.90;;;;;;5035564;28;20535;-67
2024/02/14 12:14:09;;;;;;;8.23;5.10;;;11.00;99.90;;;;;;5036393;28;20432;-71
2024/02/14 12:16:36;;;;;;;5.97;4.00;;;11.00;99.90;;;;;;5034978;28;20465;-69
2024/02/14 12:19:09;;;;;;;5.90;4.90;;;11.10;99.90;;;;;;5036790;28;21214;-68
2024/02/14 12:21:39;;;;;;;5.07;4.57;;;11.00;99.90;;;;;;5032336;28;20448;-74
2024/02/14 12:24:09;;;;;;;7.27;5.37;;;11.10;99.90;;;;;;5033085;28;20427;-69
2024/02/14 12:26:37;;;;;;;5.23;4.77;;;11.10;99.90;;;;;;5030357;28;20818;-68
2024/02/14 12:29:10;;;;;;;10.10;5.43;;;11.10;99.90;;;;;;5032489;28;20825;-73
2024/02/14 12:31:36;;;;;;;5.47;5.03;;;11.10;99.90;;;;;;5031992;28;20430;-71
2024/02/14 12:34:04;;;;;;;5.33;4.83;;;11.20;99.90;;;;;;5033351;28;20460;-70
2024/02/14 12:36:33;;;;;;;5.87;5.37;;;11.20;99.90;;;;;;5016379;28;20439;-69
2024/02/14 12:39:02;;;;;;;6.63;4.67;;;11.20;99.90;;;;;;5032290;28;20437;-70
2024/02/14 12:41:33;;;;;;;5.50;4.77;;;11.20;99.90;;;;;;5016216;28;20494;-71
2024/02/14 12:44:00;;;;;;;5.40;4.90;;;11.20;99.90;;;;;;5032718;28;20580;-66
2024/02/14 12:46:25;;;;;;;9.00;5.83;;;11.20;99.90;;;;;;5031819;28;20483;-70
2024/02/14 12:48:51;;;;;;;11.10;6.03;;;11.30;99.90;;;;;;5031650;28;20425;-68
2024/02/14 12:51:17;;;;;;;7.23;5.80;;;11.20;99.90;;;;;;5031751;28;20178;-69